Time;durP1;ratioP1;P1;durP2;ratioP2;P2;SDS_P1;SDS_P2;PMS_P1;PMS_P2;Temp;Humidity;BMP_temperature;BMP_pressure;BME280_temperature;BME280_humidity;BME280_pressure;Samples;Min_cycle;Max_cycle;Signal;HPM_P1;HPM_P2
2022/08/19 00:00:28;;;;;;;10.20;6.05;;;15.00;99.90;;;;;;5017355;28;20061;-71
2022/08/19 00:02:54;;;;;;;9.23;5.90;;;15.00;99.90;;;;;;5017093;28;20053;-71
2022/08/19 00:05:21;;;;;;;10.98;6.40;;;15.00;99.90;;;;;;5017310;28;20042;-71
2022/08/19 00:07:48;;;;;;;8.18;5.55;;;14.90;99.90;;;;;;5016882;28;20462;-72
2022/08/19 00:10:16;;;;;;;12.07;6.90;;;14.90;99.90;;;;;;5016515;28;20046;-72
2022/08/19 00:12:42;;;;;;;10.18;6.85;;;14.90;99.90;;;;;;5032410;28;20466;-71
2022/08/19 00:15:11;;;;;;;11.82;6.53;;;14.90;99.90;;;;;;5036817;28;20064;-71
2022/08/19 00:17:40;;;;;;;10.55;6.53;;;14.90;99.90;;;;;;5036712;28;20053;-72
2022/08/19 00:20:07;;;;;;;10.30;6.78;;;14.90;99.90;;;;;;5036865;28;20041;-71
2022/08/19 00:22:34;;;;;;;10.32;6.50;;;14.90;99.90;;;;;;5037090;28;20038;-72
2022/08/19 00:25:00;;;;;;;11.25;7.55;;;14.90;99.90;;;;;;5028254;28;20037;-71
2022/08/19 00:27:25;;;;;;;9.70;7.30;;;14.80;99.90;;;;;;5019090;28;20134;-72
2022/08/19 00:29:51;;;;;;;13.63;7.30;;;14.80;99.90;;;;;;5026150;28;20045;-72
2022/08/19 00:32:17;;;;;;;10.65;6.47;;;14.80;99.90;;;;;;5016442;28;20053;-72
2022/08/19 00:34:43;;;;;;;9.48;6.85;;;14.70;99.90;;;;;;5016544;28;20125;-71
2022/08/19 00:37:09;;;;;;;9.50;6.28;;;14.80;99.90;;;;;;5033144;28;20124;-71
2022/08/19 00:39:34;;;;;;;7.57;6.20;;;14.80;99.90;;;;;;5036400;28;20049;-72
2022/08/19 00:42:00;;;;;;;11.07;7.72;;;14.80;99.90;;;;;;5036440;28;20041;-71
2022/08/19 00:44:28;;;;;;;11.82;8.35;;;14.70;99.90;;;;;;5036284;28;20049;-72
2022/08/19 00:46:58;;;;;;;9.05;7.10;;;14.80;99.90;;;;;;5036196;28;20097;-71
2022/08/19 00:49:40;;;;;;;10.68;7.25;;;14.70;99.90;;;;;;5030295;28;20076;-71
2022/08/19 00:52:13;;;;;;;11.93;7.22;;;14.60;99.90;;;;;;5036012;28;20049;-71
2022/08/19 00:54:41;;;;;;;13.82;8.32;;;14.70;99.90;;;;;;5035852;28;20041;-71
2022/08/19 00:57:10;;;;;;;10.80;7.75;;;14.60;99.90;;;;;;5036102;28;20052;-71
2022/08/19 00:59:38;;;;;;;10.82;7.38;;;14.60;99.90;;;;;;5035780;28;20045;-72
2022/08/19 01:02:04;;;;;;;10.30;7.40;;;14.60;99.90;;;;;;5036096;28;20454;-72
2022/08/19 01:04:29;;;;;;;16.45;9.75;;;14.60;99.90;;;;;;5027667;28;20056;-72
2022/08/19 01:06:56;;;;;;;12.57;8.98;;;14.60;99.90;;;;;;5016010;28;20054;-72
2022/08/19 01:09:22;;;;;;;13.60;8.85;;;14.60;99.90;;;;;;5014235;28;20183;-71
2022/08/19 01:11:48;;;;;;;13.07;8.85;;;14.50;99.90;;;;;;5016358;28;20125;-72
2022/08/19 01:14:15;;;;;;;13.68;9.25;;;14.50;99.90;;;;;;5016136;28;20045;-72
2022/08/19 01:16:41;;;;;;;13.02;9.30;;;14.50;99.90;;;;;;5015826;28;20050;-71
2022/08/19 01:19:18;;;;;;;14.20;9.60;;;14.50;99.90;;;;;;5015971;28;20480;-71
2022/08/19 01:21:55;;;;;;;12.82;9.50;;;14.50;99.90;;;;;;5015694;28;20048;-72
2022/08/19 01:24:21;;;;;;;15.90;9.95;;;14.50;99.90;;;;;;5020064;28;20053;-72
2022/08/19 01:26:47;;;;;;;12.82;9.05;;;14.50;99.90;;;;;;5035309;28;20049;-71
2022/08/19 01:29:13;;;;;;;14.52;10.68;;;14.50;99.90;;;;;;5030086;28;20100;-72
2022/08/19 01:31:39;;;;;;;12.63;9.60;;;14.50;99.90;;;;;;5015627;28;20046;-71
2022/08/19 01:34:06;;;;;;;14.70;9.57;;;14.50;99.90;;;;;;5015835;28;20049;-71
2022/08/19 01:36:36;;;;;;;15.38;10.05;;;14.50;99.90;;;;;;5015774;28;20042;-71
2022/08/19 01:39:06;;;;;;;13.90;10.57;;;14.40;99.90;;;;;;5015081;28;20046;-71
2022/08/19 01:41:32;;;;;;;13.73;8.50;;;14.40;99.90;;;;;;5016337;28;20049;-71
2022/08/19 01:43:58;;;;;;;14.65;9.70;;;14.40;99.90;;;;;;5015456;28;20447;-71
2022/08/19 01:46:24;;;;;;;16.10;9.70;;;14.40;99.90;;;;;;5015911;28;20069;-71
2022/08/19 01:48:50;;;;;;;13.80;10.45;;;14.30;99.90;;;;;;5015238;28;20042;-71
2022/08/19 01:51:16;;;;;;;13.68;8.48;;;14.40;99.90;;;;;;5015326;28;20481;-71
2022/08/19 01:53:41;;;;;;;17.85;9.80;;;14.30;99.90;;;;;;5020763;28;20124;-71
2022/08/19 01:56:07;;;;;;;14.25;9.90;;;14.30;99.90;;;;;;5035072;28;20132;-71
2022/08/19 01:58:45;;;;;;;15.40;10.10;;;14.30;99.90;;;;;;5034739;28;20440;-71
2022/08/19 02:01:12;;;;;;;16.30;10.95;;;14.30;99.90;;;;;;5034971;28;20107;-71
2022/08/19 02:03:38;;;;;;;16.55;10.70;;;14.30;99.90;;;;;;5034274;28;20068;-71
2022/08/19 02:06:05;;;;;;;16.27;10.80;;;14.30;99.90;;;;;;5035266;28;20442;-71
2022/08/19 02:08:32;;;;;;;13.13;9.80;;;14.20;99.90;;;;;;5027987;28;20041;-72
2022/08/19 02:10:58;;;;;;;16.38;10.35;;;14.30;99.90;;;;;;5034710;28;20067;-71
2022/08/19 02:13:24;;;;;;;12.85;10.10;;;14.20;99.90;;;;;;5017914;28;20132;-71
2022/08/19 02:15:50;;;;;;;15.82;10.05;;;14.20;99.90;;;;;;5034762;28;20096;-72
2022/08/19 02:18:16;;;;;;;15.55;9.98;;;14.10;99.90;;;;;;5034549;28;20053;-71
2022/08/19 02:20:42;;;;;;;13.07;8.23;;;14.20;99.90;;;;;;5034621;28;20079;-71
2022/08/19 02:23:09;;;;;;;12.25;9.00;;;14.20;99.90;;;;;;5021330;28;20038;-70
2022/08/19 02:25:36;;;;;;;13.60;9.23;;;14.10;99.90;;;;;;5015160;28;20405;-71
2022/08/19 02:28:02;;;;;;;13.00;8.68;;;14.10;99.90;;;;;;5014846;28;20078;-71
2022/08/19 02:30:28;;;;;;;12.75;8.23;;;14.10;99.90;;;;;;5014960;28;20389;-71
2022/08/19 02:32:53;;;;;;;15.07;8.73;;;14.10;99.90;;;;;;5014636;28;20129;-71
2022/08/19 02:35:20;;;;;;;14.68;9.32;;;14.10;99.90;;;;;;5014680;28;20053;-72
2022/08/19 02:40:33;;;;;;;10.43;8.43;;;14.10;99.90;;;;;;5014753;28;20057;-71
2022/08/19 02:42:59;;;;;;;12.68;8.50;;;14.10;99.90;;;;;;5014904;28;20374;-71
2022/08/19 02:45:25;;;;;;;13.23;7.82;;;14.10;99.90;;;;;;5014101;28;20111;-72
2022/08/19 02:47:50;;;;;;;11.35;7.28;;;14.10;99.90;;;;;;5014731;28;20071;-72
2022/08/19 02:50:16;;;;;;;11.75;7.90;;;14.00;99.90;;;;;;5015010;28;20049;-71
2022/08/19 02:52:41;;;;;;;10.65;7.38;;;14.00;99.90;;;;;;5026243;28;20126;-71
2022/08/19 02:55:08;;;;;;;11.35;7.30;;;13.90;99.90;;;;;;5034511;28;20049;-71
2022/08/19 02:57:34;;;;;;;10.43;7.38;;;13.90;99.90;;;;;;5034601;28;20041;-71
2022/08/19 03:00:00;;;;;;;10.82;7.10;;;14.00;99.90;;;;;;5033978;28;20064;-72
2022/08/19 03:02:25;;;;;;;10.90;6.85;;;13.90;99.90;;;;;;5034418;28;20046;-72
2022/08/19 03:04:51;;;;;;;12.65;8.20;;;13.90;99.90;;;;;;5034406;28;20060;-71
2022/08/19 03:07:18;;;;;;;12.27;8.35;;;13.90;99.90;;;;;;5021932;28;20061;-71
2022/08/19 03:09:43;;;;;;;12.95;8.10;;;13.90;99.90;;;;;;5014224;28;20045;-71
2022/08/19 03:12:10;;;;;;;12.70;8.48;;;13.80;99.90;;;;;;5016999;28;20053;-71
2022/08/19 03:14:36;;;;;;;10.98;8.15;;;13.80;99.90;;;;;;5018325;28;20085;-71
2022/08/19 03:17:04;;;;;;;10.98;7.57;;;13.80;99.90;;;;;;5018171;28;20074;-71
2022/08/19 03:19:31;;;;;;;10.70;7.13;;;13.80;99.90;;;;;;5018052;28;20042;-71
2022/08/19 03:21:57;;;;;;;11.25;7.95;;;13.80;99.90;;;;;;5017681;28;20129;-71
2022/08/19 03:24:23;;;;;;;11.02;7.60;;;13.80;99.90;;;;;;5037386;28;20473;-71
2022/08/19 03:26:52;;;;;;;13.68;7.80;;;13.80;99.90;;;;;;5037589;28;20045;-71
2022/08/19 03:29:19;;;;;;;12.07;7.82;;;13.80;99.90;;;;;;5031558;28;20041;-71
2022/08/19 03:31:45;;;;;;;10.00;7.55;;;13.80;99.90;;;;;;5017985;28;20125;-72
2022/08/19 03:34:12;;;;;;;11.90;8.30;;;13.70;99.90;;;;;;5017813;28;20120;-72
2022/08/19 03:36:38;;;;;;;15.98;9.80;;;13.70;99.90;;;;;;5017837;28;20103;-71
2022/08/19 03:39:04;;;;;;;14.18;8.93;;;13.70;99.90;;;;;;5017863;28;20074;-71
2022/08/19 03:41:36;;;;;;;14.10;8.82;;;13.70;99.90;;;;;;5017837;28;20069;-71
2022/08/19 03:44:02;;;;;;;13.18;9.50;;;13.70;99.90;;;;;;5017819;28;20049;-71
2022/08/19 03:46:30;;;;;;;15.05;8.57;;;13.70;99.90;;;;;;5000490;28;20451;-72
2022/08/19 03:48:58;;;;;;;11.98;8.98;;;13.70;99.90;;;;;;5024597;28;20383;-71
2022/08/19 03:51:25;;;;;;;13.73;9.35;;;13.70;99.90;;;;;;5030266;28;20041;-71
2022/08/19 03:53:53;;;;;;;12.27;8.98;;;13.60;99.90;;;;;;5017769;28;20038;-71
2022/08/19 03:56:19;;;;;;;16.73;8.98;;;13.60;99.90;;;;;;5017576;28;20125;-71
2022/08/19 03:58:45;;;;;;;13.48;9.40;;;13.70;99.90;;;;;;5017354;28;20584;-71
2022/08/19 04:01:14;;;;;;;13.30;9.40;;;13.60;99.90;;;;;;5017181;28;20048;-71
2022/08/19 04:03:40;;;;;;;15.48;9.75;;;13.60;99.90;;;;;;5018785;28;20443;-70
2022/08/19 04:06:17;;;;;;;12.88;8.95;;;13.50;99.90;;;;;;5019493;28;20092;-70
2022/08/19 04:08:45;;;;;;;17.30;9.38;;;13.60;99.90;;;;;;5035540;28;20037;-71
2022/08/19 04:11:14;;;;;;;13.88;9.57;;;13.60;99.90;;;;;;5032175;28;20034;-70
2022/08/19 04:13:42;;;;;;;16.80;9.90;;;13.60;99.90;;;;;;5017713;28;20141;-70
2022/08/19 04:16:09;;;;;;;12.90;8.90;;;13.60;99.90;;;;;;5017541;28;20370;-70
2022/08/19 04:18:37;;;;;;;13.65;9.18;;;13.50;99.90;;;;;;5017618;28;20129;-70
2022/08/19 04:21:03;;;;;;;11.65;8.35;;;13.60;99.90;;;;;;5016911;28;20132;-71
2022/08/19 04:23:29;;;;;;;15.60;8.50;;;13.50;99.90;;;;;;5022537;28;20469;-70
2022/08/19 04:25:55;;;;;;;18.73;9.77;;;13.60;99.90;;;;;;5036954;28;20041;-71
2022/08/19 04:28:22;;;;;;;12.35;9.07;;;13.50;99.90;;;;;;5036781;28;20485;-71
2022/08/19 04:30:51;;;;;;;14.40;9.15;;;13.60;99.90;;;;;;5037098;28;20107;-71
2022/08/19 04:33:19;;;;;;;11.68;8.30;;;13.50;99.90;;;;;;5036640;28;20045;-70
2022/08/19 04:35:48;;;;;;;13.57;9.80;;;13.60;99.90;;;;;;5025770;28;20065;-70
2022/08/19 04:38:14;;;;;;;12.77;8.75;;;13.50;99.90;;;;;;5015383;28;20425;-71
2022/08/19 04:43:31;;;;;;;14.57;9.07;;;13.60;99.90;;;;;;5017049;28;20049;-70
2022/08/19 04:45:57;;;;;;;15.20;10.02;;;13.60;99.90;;;;;;5016452;28;20386;-70
2022/08/19 04:48:26;;;;;;;14.88;9.38;;;13.60;99.90;;;;;;5016868;28;20057;-71
2022/08/19 04:50:59;;;;;;;13.60;8.93;;;13.70;99.90;;;;;;5015879;28;20053;-71
2022/08/19 04:53:28;;;;;;;12.73;9.10;;;13.70;99.90;;;;;;4998676;28;20042;-70
2022/08/19 04:55:58;;;;;;;13.10;9.38;;;13.80;99.90;;;;;;5016504;28;20070;-70
2022/08/19 04:58:26;;;;;;;13.30;8.65;;;13.70;99.90;;;;;;5016496;28;20041;-70
2022/08/19 05:00:52;;;;;;;14.93;9.77;;;13.70;99.90;;;;;;5016436;28;20149;-70
2022/08/19 05:03:18;;;;;;;16.33;9.70;;;13.70;99.90;;;;;;5015899;28;20053;-70
2022/08/19 05:05:45;;;;;;;14.15;10.43;;;13.80;99.90;;;;;;5016043;28;20081;-71
2022/08/19 05:08:21;;;;;;;13.13;9.48;;;13.80;99.90;;;;;;4999197;28;20058;-70
2022/08/19 05:10:51;;;;;;;15.30;9.95;;;13.80;99.90;;;;;;5016420;28;20143;-71
2022/08/19 05:13:18;;;;;;;13.90;9.40;;;13.90;99.90;;;;;;4998676;28;20045;-71
2022/08/19 05:15:54;;;;;;;13.82;9.35;;;14.00;99.90;;;;;;5016623;28;20050;-70
2022/08/19 05:23:53;;;;;;;17.45;11.35;;;14.10;99.90;;;;;;5016036;28;20042;-70
2022/08/19 05:26:19;;;;;;;20.13;11.25;;;14.20;99.90;;;;;;5014736;28;20045;-70
2022/08/19 05:28:44;;;;;;;16.65;10.43;;;14.20;99.90;;;;;;5016141;28;20046;-71
2022/08/19 05:31:10;;;;;;;20.35;11.82;;;14.20;99.90;;;;;;5016054;28;20089;-70
2022/08/19 05:33:35;;;;;;;21.95;11.88;;;14.30;99.90;;;;;;5016068;28;20057;-71
2022/08/19 05:36:02;;;;;;;19.35;10.77;;;14.40;99.90;;;;;;5015395;28;20482;-71
2022/08/19 05:38:29;;;;;;;18.60;10.98;;;14.40;99.90;;;;;;5015609;28;20435;-70
2022/08/19 05:40:55;;;;;;;18.20;11.40;;;14.50;99.90;;;;;;5016062;28;20068;-70
2022/08/19 05:43:21;;;;;;;16.00;10.88;;;14.60;99.90;;;;;;5016004;28;20093;-71
2022/08/19 05:45:46;;;;;;;17.45;10.40;;;14.70;99.90;;;;;;5016037;28;20060;-70
2022/08/19 05:48:12;;;;;;;23.75;14.10;;;14.80;99.90;;;;;;5016092;28;20053;-71
2022/08/19 05:50:40;;;;;;;25.50;14.57;;;15.10;99.90;;;;;;5015147;28;20037;-71
2022/08/19 05:53:08;;;;;;;20.45;14.35;;;16.20;99.90;;;;;;5016694;28;20045;-71
2022/08/19 05:55:34;;;;;;;18.70;13.25;;;17.60;99.90;;;;;;5015576;28;20037;-71
2022/08/19 05:58:01;;;;;;;18.85;11.85;;;19.00;99.90;;;;;;5015468;28;20037;-72
2022/08/19 06:00:27;;;;;;;14.43;10.27;;;20.10;99.90;;;;;;5015431;28;20080;-72
2022/08/19 06:02:56;;;;;;;12.30;9.32;;;21.30;99.90;;;;;;5015233;28;20073;-71
2022/08/19 06:05:21;;;;;;;11.50;8.30;;;22.20;99.90;;;;;;4997742;28;20065;-71
2022/08/19 06:07:47;;;;;;;10.95;8.55;;;23.10;99.90;;;;;;5015444;28;20042;-71
2022/08/19 06:10:13;;;;;;;9.95;8.07;;;23.70;99.90;;;;;;5015260;28;20046;-72
2022/08/19 06:12:39;;;;;;;11.00;8.07;;;24.40;99.90;;;;;;5015220;28;20049;-72
2022/08/19 06:15:12;;;;;;;10.00;7.57;;;25.00;99.90;;;;;;5014683;28;20061;-71
2022/08/19 06:17:38;;;;;;;11.05;7.53;;;25.50;99.90;;;;;;4998348;28;20124;-71
2022/08/19 06:20:05;;;;;;;8.05;6.88;;;25.80;99.90;;;;;;4997768;28;20471;-72
2022/08/19 06:22:31;;;;;;;11.60;7.57;;;26.30;99.90;;;;;;4998398;28;20049;-72
2022/08/19 06:24:57;;;;;;;8.23;6.82;;;26.60;99.90;;;;;;4998262;28;20056;-72
2022/08/19 06:27:22;;;;;;;8.65;7.30;;;26.90;99.90;;;;;;5014715;28;20041;-72
2022/08/19 06:29:49;;;;;;;9.38;7.10;;;27.20;99.90;;;;;;5014740;28;20042;-72
2022/08/19 06:32:16;;;;;;;10.65;6.90;;;27.50;99.90;;;;;;5015123;28;20046;-71
2022/08/19 06:34:42;;;;;;;8.20;6.60;;;27.70;99.50;;;;;;4997847;28;20053;-73
2022/08/19 06:37:07;;;;;;;9.02;6.97;;;28.00;99.90;;;;;;5015105;28;20473;-72
2022/08/19 06:39:37;;;;;;;10.05;7.65;;;28.30;99.90;;;;;;5014975;28;20053;-71
2022/08/19 06:42:06;;;;;;;10.63;7.43;;;28.50;99.90;;;;;;5014626;28;20042;-72
2022/08/19 06:44:35;;;;;;;7.75;6.22;;;28.60;99.90;;;;;;4993907;28;20117;-72
2022/08/19 06:47:04;;;;;;;11.18;7.22;;;28.90;98.90;;;;;;5014497;28;20046;-71
2022/08/19 06:49:33;;;;;;;8.43;7.07;;;29.20;99.30;;;;;;5017438;28;20498;-72
2022/08/19 06:51:59;;;;;;;10.32;7.05;;;29.30;99.30;;;;;;5018086;28;20054;-69
2022/08/19 06:54:26;;;;;;;8.35;6.70;;;29.60;99.40;;;;;;5018623;28;20116;-69
2022/08/19 06:56:51;;;;;;;8.82;6.72;;;29.80;98.70;;;;;;5018258;28;20045;-70
2022/08/19 06:59:22;;;;;;;9.10;6.25;;;29.90;98.40;;;;;;5018481;28;20046;-69
2022/08/19 07:01:50;;;;;;;8.95;6.70;;;29.50;96.70;;;;;;5013841;28;20050;-69
2022/08/19 07:04:22;;;;;;;9.23;6.75;;;28.60;98.20;;;;;;5018080;28;20062;-68
2022/08/19 07:06:48;;;;;;;11.23;6.78;;;27.40;97.90;;;;;;5018501;28;20042;-69
2022/08/19 07:09:16;;;;;;;8.13;6.40;;;26.40;99.60;;;;;;5018410;28;20041;-69
2022/08/19 07:11:46;;;;;;;9.38;6.95;;;25.70;99.90;;;;;;5018152;28;20049;-68
2022/08/19 07:14:13;;;;;;;10.13;6.95;;;25.10;99.90;;;;;;5015498;28;20046;-69
2022/08/19 07:16:38;;;;;;;10.38;8.02;;;24.60;99.90;;;;;;5000094;28;20038;-69
2022/08/19 07:19:04;;;;;;;10.50;7.68;;;24.20;99.90;;;;;;5017905;28;20064;-69
2022/08/19 07:21:30;;;;;;;12.32;7.80;;;23.70;99.90;;;;;;5017991;28;20037;-69
2022/08/19 07:23:58;;;;;;;11.95;8.50;;;23.50;99.90;;;;;;5017589;28;20357;-68
2022/08/19 07:26:29;;;;;;;11.30;7.25;;;23.30;99.90;;;;;;5017866;28;20385;-69
2022/08/19 07:28:57;;;;;;;10.80;7.13;;;23.20;99.90;;;;;;5017184;28;20485;-69
2022/08/19 07:31:25;;;;;;;9.40;6.25;;;22.90;99.90;;;;;;5017402;28;20536;-69
2022/08/19 07:33:54;;;;;;;9.70;6.60;;;22.90;99.90;;;;;;5017158;28;20137;-69
2022/08/19 07:36:22;;;;;;;8.90;6.88;;;22.80;99.90;;;;;;5017930;28;20041;-68
2022/08/19 07:38:50;;;;;;;8.15;6.75;;;22.80;99.90;;;;;;5017491;28;20382;-68
2022/08/19 07:41:21;;;;;;;9.35;6.47;;;22.80;99.90;;;;;;5017033;28;20046;-69
2022/08/19 07:43:49;;;;;;;9.27;6.10;;;22.80;99.90;;;;;;5017048;28;20050;-69
2022/08/19 07:46:16;;;;;;;10.55;6.63;;;23.00;99.90;;;;;;5017131;28;20042;-69
2022/08/19 07:48:46;;;;;;;10.15;6.75;;;23.50;99.90;;;;;;5017117;28;20077;-69
2022/08/19 07:51:12;;;;;;;8.90;6.35;;;24.40;99.90;;;;;;5017678;28;20121;-69
2022/08/19 07:53:38;;;;;;;6.90;5.45;;;25.40;99.90;;;;;;5017337;28;20077;-69
2022/08/19 07:56:06;;;;;;;9.40;5.90;;;26.30;99.90;;;;;;5016857;28;20088;-69
2022/08/19 07:58:37;;;;;;;9.13;6.10;;;26.50;99.90;;;;;;5015570;28;20075;-69
2022/08/19 08:01:05;;;;;;;8.52;6.30;;;26.00;99.90;;;;;;5017110;28;20417;-69
2022/08/19 08:09:15;;;;;;;6.75;5.70;;;24.60;99.90;;;;;;5017312;28;20123;-68
2022/08/19 08:11:50;;;;;;;9.55;6.43;;;24.30;99.90;;;;;;5017002;28;20060;-69
2022/08/19 08:14:22;;;;;;;7.38;5.80;;;24.70;99.90;;;;;;4999289;28;20049;-69
2022/08/19 08:16:50;;;;;;;7.77;5.97;;;25.80;99.90;;;;;;5016693;28;20383;-69
2022/08/19 08:19:18;;;;;;;8.52;5.65;;;26.80;99.90;;;;;;5016586;28;20099;-69
2022/08/19 08:21:44;;;;;;;8.65;6.07;;;27.80;99.90;;;;;;5017168;28;20135;-69
2022/08/19 08:24:10;;;;;;;8.70;6.30;;;28.40;99.90;;;;;;5016951;28;20042;-69
2022/08/19 08:26:36;;;;;;;8.18;6.18;;;29.00;99.90;;;;;;5072276;22;20065;-68
2022/08/19 08:29:02;;;;;;;6.60;5.18;;;29.50;99.90;;;;;;5036416;28;20057;-68
2022/08/19 08:31:28;;;;;;;6.88;5.30;;;30.00;99.90;;;;;;5036621;28;20045;-70
2022/08/19 08:33:54;;;;;;;10.10;5.20;;;30.30;99.90;;;;;;5036460;28;20448;-70
2022/08/19 08:36:20;;;;;;;7.20;5.25;;;30.40;98.20;;;;;;5036148;28;20045;-69
2022/08/19 08:38:46;;;;;;;7.93;4.90;;;30.60;98.90;;;;;;5035936;28;20052;-69
2022/08/19 08:41:30;;;;;;;6.60;4.70;;;30.60;98.40;;;;;;5038780;28;20041;-69
2022/08/19 08:43:56;;;;;;;6.63;4.38;;;31.00;96.50;;;;;;5056329;28;20123;-69
2022/08/19 08:46:38;;;;;;;7.68;4.85;;;31.00;98.30;;;;;;5056030;28;20045;-69
2022/08/19 08:49:16;;;;;;;9.15;5.20;;;31.00;95.80;;;;;;5055629;28;20049;-69
2022/08/19 08:51:48;;;;;;;7.45;4.80;;;31.00;95.50;;;;;;5056084;28;20045;-69
2022/08/19 08:54:20;;;;;;;6.50;4.93;;;31.00;97.20;;;;;;5056088;28;20060;-70
2022/08/19 08:56:47;;;;;;;7.68;4.70;;;30.70;96.00;;;;;;5025055;28;20449;-70
2022/08/19 08:59:23;;;;;;;7.85;4.50;;;30.50;97.20;;;;;;5035551;28;20161;-69
2022/08/19 09:01:48;;;;;;;7.95;4.63;;;30.40;96.20;;;;;;5035296;28;20346;-68
2022/08/19 09:04:15;;;;;;;10.30;4.68;;;30.20;97.60;;;;;;5035875;28;20061;-68
2022/08/19 09:07:08;;;;;;;8.23;5.22;;;29.80;97.50;;;;;;5036152;28;20458;-69
2022/08/19 09:09:48;;;;;;;8.20;5.22;;;29.50;97.20;;;;;;5034399;28;20492;-68
2022/08/19 09:12:13;;;;;;;8.73;5.95;;;28.90;97.40;;;;;;5035194;28;20054;-69
2022/08/19 09:14:50;;;;;;;6.78;4.72;;;28.30;97.70;;;;;;5035620;28;20056;-70
2022/08/19 09:17:17;;;;;;;9.90;5.22;;;27.90;98.30;;;;;;5035604;28;20048;-68
2022/08/19 09:19:57;;;;;;;6.22;4.30;;;27.60;99.40;;;;;;5035519;28;20053;-68
2022/08/19 09:22:24;;;;;;;5.50;3.65;;;27.30;98.40;;;;;;5035391;28;20491;-68
2022/08/19 09:24:52;;;;;;;4.53;3.30;;;27.10;99.50;;;;;;5035383;28;20053;-68
2022/08/19 09:27:18;;;;;;;6.75;4.00;;;26.90;99.20;;;;;;5051137;28;20064;-68
2022/08/19 09:29:44;;;;;;;5.20;3.47;;;26.80;99.50;;;;;;5054976;28;20338;-68
2022/08/19 09:32:10;;;;;;;5.18;3.40;;;27.00;99.40;;;;;;5055522;28;20140;-68
2022/08/19 09:34:35;;;;;;;4.68;3.50;;;27.30;99.40;;;;;;5020886;28;20049;-68
2022/08/19 09:37:02;;;;;;;7.05;3.83;;;27.60;98.80;;;;;;5035118;28;20457;-68
2022/08/19 09:39:30;;;;;;;4.45;3.30;;;27.80;97.50;;;;;;5034785;28;20496;-68
2022/08/19 09:41:56;;;;;;;6.57;3.92;;;28.20;97.70;;;;;;5035345;28;20364;-67
2022/08/19 09:44:21;;;;;;;8.43;3.72;;;28.60;97.50;;;;;;5035197;28;20145;-67
2022/08/19 09:46:47;;;;;;;5.88;4.18;;;28.90;97.40;;;;;;5035115;28;20400;-67
2022/08/19 09:49:13;;;;;;;6.68;3.90;;;28.80;96.90;;;;;;5035048;28;20053;-68
2022/08/19 09:51:38;;;;;;;5.20;3.92;;;28.60;97.30;;;;;;5034862;28;20038;-67
2022/08/19 09:54:04;;;;;;;5.68;3.63;;;28.20;97.70;;;;;;5034472;28;20117;-67
2022/08/19 09:56:31;;;;;;;6.43;4.07;;;27.90;98.00;;;;;;5016865;28;20052;-69
2022/08/19 09:59:01;;;;;;;5.90;4.55;;;27.60;98.30;;;;;;5035037;28;20148;-69
2022/08/19 10:01:29;;;;;;;5.40;4.10;;;27.40;98.20;;;;;;5035831;28;20049;-69
2022/08/19 10:03:57;;;;;;;7.85;5.28;;;27.30;98.70;;;;;;5035107;28;20057;-70
2022/08/19 10:06:25;;;;;;;6.20;5.38;;;27.10;98.40;;;;;;5034859;28;20045;-69
2022/08/19 10:08:51;;;;;;;7.38;5.60;;;27.00;98.30;;;;;;5034743;28;20124;-69
2022/08/19 10:11:18;;;;;;;9.10;5.10;;;26.90;98.30;;;;;;5034720;28;20195;-69
2022/08/19 10:13:44;;;;;;;7.78;5.55;;;26.80;98.90;;;;;;5032601;28;20049;-69
2022/08/19 10:16:14;;;;;;;7.05;5.57;;;26.90;98.80;;;;;;5045734;28;20452;-69
2022/08/19 10:18:43;;;;;;;7.05;4.80;;;26.80;98.50;;;;;;5034115;28;20102;-68
2022/08/19 10:21:17;;;;;;;6.80;4.57;;;26.80;99.10;;;;;;5034146;28;20037;-69
2022/08/19 10:23:46;;;;;;;6.35;4.80;;;26.90;99.40;;;;;;5044162;28;20529;-70
2022/08/19 10:26:15;;;;;;;7.20;4.53;;;27.00;99.20;;;;;;5033519;28;20049;-69
2022/08/19 10:28:41;;;;;;;9.75;5.00;;;27.00;99.10;;;;;;5014122;28;20069;-69
2022/08/19 10:31:12;;;;;;;7.72;5.03;;;27.10;99.30;;;;;;4997515;28;20077;-68
2022/08/19 10:33:39;;;;;;;8.80;5.35;;;27.00;99.00;;;;;;5015025;28;20361;-70
2022/08/19 10:36:09;;;;;;;6.07;4.22;;;27.00;98.30;;;;;;5014808;28;20049;-70
2022/08/19 10:38:35;;;;;;;7.50;5.07;;;26.90;98.60;;;;;;5014687;28;20037;-70
2022/08/19 10:41:12;;;;;;;8.02;5.72;;;26.90;98.80;;;;;;5014192;28;20057;-70
2022/08/19 10:43:39;;;;;;;8.52;5.70;;;27.00;98.10;;;;;;5014371;28;20050;-70
2022/08/19 10:46:10;;;;;;;6.57;5.20;;;27.00;98.70;;;;;;5014565;28;20465;-68
2022/08/19 10:48:36;;;;;;;7.13;5.38;;;27.10;98.20;;;;;;5015048;28;20045;-68
2022/08/19 10:53:47;;;;;;;6.90;5.10;;;27.20;98.10;;;;;;5013838;28;20079;-68
2022/08/19 10:58:57;;;;;;;6.57;4.70;;;27.40;98.50;;;;;;5013756;28;20132;-67
2022/08/19 11:01:24;;;;;;;9.40;4.28;;;27.50;98.00;;;;;;5014013;28;20046;-68
2022/08/19 11:03:50;;;;;;;7.50;5.07;;;27.60;98.10;;;;;;5014681;28;20116;-68
2022/08/19 11:06:16;;;;;;;5.15;3.97;;;27.70;97.60;;;;;;5014453;28;20133;-67
2022/08/19 11:08:44;;;;;;;6.55;4.40;;;28.00;98.10;;;;;;5014357;28;20045;-68
2022/08/19 11:11:10;;;;;;;6.47;4.75;;;28.20;98.10;;;;;;5013979;28;20064;-68
2022/08/19 11:13:39;;;;;;;6.43;5.13;;;28.30;97.50;;;;;;5014585;28;20041;-68
2022/08/19 11:16:09;;;;;;;7.18;5.38;;;28.50;97.00;;;;;;5014309;28;20438;-68
2022/08/19 11:18:40;;;;;;;7.18;5.43;;;28.50;96.70;;;;;;5013942;28;20057;-67
2022/08/19 11:21:19;;;;;;;10.95;5.80;;;28.60;97.50;;;;;;5014108;28;20430;-68
2022/08/19 11:23:47;;;;;;;7.55;5.25;;;28.60;95.70;;;;;;5014377;28;20058;-68
2022/08/19 11:26:15;;;;;;;7.55;5.40;;;28.70;97.40;;;;;;5013971;28;20041;-68
2022/08/19 11:28:41;;;;;;;9.38;6.15;;;28.70;96.60;;;;;;5050407;28;20106;-68
2022/08/19 11:31:15;;;;;;;7.50;6.45;;;28.70;96.90;;;;;;5053495;28;20136;-68
2022/08/19 11:33:41;;;;;;;6.63;5.10;;;28.60;96.70;;;;;;5056725;28;20060;-68
2022/08/19 11:36:07;;;;;;;5.90;4.57;;;28.70;97.00;;;;;;5057623;28;20053;-68
2022/08/19 11:38:34;;;;;;;6.55;5.35;;;28.80;96.80;;;;;;5057191;28;20361;-68
2022/08/19 11:41:02;;;;;;;7.60;5.00;;;29.00;97.40;;;;;;5057265;28;20049;-68
2022/08/19 11:43:28;;;;;;;10.40;4.78;;;29.10;97.00;;;;;;5057301;28;20052;-68
2022/08/19 11:45:55;;;;;;;7.95;6.30;;;29.10;97.50;;;;;;5057268;28;20045;-68
2022/08/19 11:48:21;;;;;;;7.03;6.15;;;29.00;96.00;;;;;;5057103;28;20037;-68
2022/08/19 11:50:48;;;;;;;10.38;7.03;;;29.00;97.20;;;;;;5057131;28;20060;-68
2022/08/19 11:53:14;;;;;;;9.57;6.55;;;28.90;96.00;;;;;;5057302;28;20052;-69
2022/08/19 11:55:40;;;;;;;8.27;5.82;;;28.80;96.20;;;;;;5071588;28;20036;-69
2022/08/19 11:58:07;;;;;;;7.28;5.20;;;28.80;96.70;;;;;;5076639;28;20427;-69
2022/08/19 12:00:35;;;;;;;7.82;4.88;;;28.80;97.10;;;;;;5076767;28;20092;-69
2022/08/19 12:03:01;;;;;;;7.45;5.55;;;28.60;96.80;;;;;;5077271;28;20040;-69
2022/08/19 12:05:26;;;;;;;9.02;6.32;;;28.50;96.90;;;;;;5076514;28;20098;-69
2022/08/19 12:07:54;;;;;;;7.78;5.78;;;28.40;96.60;;;;;;5076739;28;20045;-69
2022/08/19 12:10:20;;;;;;;7.80;6.38;;;28.20;96.40;;;;;;5059116;28;20056;-69
2022/08/19 12:12:46;;;;;;;10.13;7.78;;;28.20;96.90;;;;;;5059158;28;20041;-69
2022/08/19 12:15:14;;;;;;;8.38;6.60;;;28.30;97.10;;;;;;5076998;28;20053;-69
2022/08/19 12:17:41;;;;;;;9.90;7.70;;;28.30;97.60;;;;;;5077065;28;20060;-68
2022/08/19 12:20:10;;;;;;;9.27;7.10;;;28.20;97.80;;;;;;5076251;28;20529;-69
2022/08/19 12:22:37;;;;;;;11.35;8.05;;;28.10;97.80;;;;;;5076515;28;20051;-68
2022/08/19 12:25:04;;;;;;;9.35;7.15;;;28.00;97.60;;;;;;5062770;28;20117;-69
2022/08/19 12:27:30;;;;;;;9.50;7.53;;;28.00;97.80;;;;;;5056510;28;20195;-68
2022/08/19 12:29:56;;;;;;;8.00;7.03;;;28.10;98.20;;;;;;5056357;28;20512;-69
2022/08/19 12:32:24;;;;;;;8.38;7.45;;;28.20;98.20;;;;;;5056253;28;20049;-69
2022/08/19 12:34:50;;;;;;;11.43;6.28;;;28.10;96.60;;;;;;5056236;28;20064;-69
2022/08/19 12:37:16;;;;;;;8.68;6.00;;;28.20;97.50;;;;;;5058652;28;20032;-70
2022/08/19 12:39:43;;;;;;;10.32;6.20;;;28.30;97.10;;;;;;5069919;28;20076;-69
2022/08/19 12:42:11;;;;;;;8.73;6.32;;;28.40;97.40;;;;;;5075704;28;20042;-70
2022/08/19 12:44:39;;;;;;;9.98;6.70;;;28.50;97.30;;;;;;5058789;28;20048;-70
2022/08/19 12:47:06;;;;;;;10.25;7.18;;;28.50;97.10;;;;;;5076463;28;20403;-71
2022/08/19 12:49:33;;;;;;;6.35;5.00;;;28.50;96.90;;;;;;5076266;28;20059;-69
2022/08/19 12:52:03;;;;;;;7.78;5.65;;;28.60;96.10;;;;;;5071324;28;20045;-69
2022/08/19 12:54:30;;;;;;;6.80;4.80;;;28.70;96.90;;;;;;5067952;28;20055;-68
2022/08/19 12:56:59;;;;;;;6.55;4.32;;;28.80;96.90;;;;;;5075823;28;20533;-69
2022/08/19 12:59:25;;;;;;;5.95;4.03;;;28.80;96.80;;;;;;5075428;28;20052;-69
2022/08/19 13:01:51;;;;;;;6.78;4.60;;;28.90;96.90;;;;;;5075926;28;20036;-69
2022/08/19 13:04:17;;;;;;;6.90;4.35;;;29.10;96.50;;;;;;5075724;28;20047;-68